Time;durP1;ratioP1;P1;durP2;ratioP2;P2;SDS_P1;SDS_P2;PMS_P1;PMS_P2;Temp;Humidity;BMP_temperature;BMP_pressure;BME280_temperature;BME280_humidity;BME280_pressure;Samples;Min_cycle;Max_cycle;Signal;HPM_P1;HPM_P2
2023/09/05 00:02:14;;;;;;;8.32;4.70;;;17.20;99.90;;;;;;6159344;23;20083;-86
2023/09/05 00:04:44;;;;;;;8.18;4.18;;;17.10;99.90;;;;;;6134252;23;20080;-86
2023/09/05 00:07:10;;;;;;;7.90;2.72;;;17.10;99.90;;;;;;6134152;23;20009;-87
2023/09/05 00:09:36;;;;;;;9.07;4.70;;;16.90;99.90;;;;;;6158872;23;20090;-87
2023/09/05 00:12:03;;;;;;;10.10;5.93;;;16.80;99.90;;;;;;6159059;23;20017;-87
2023/09/05 00:14:29;;;;;;;10.73;6.70;;;16.80;99.90;;;;;;6159004;23;20094;-87
2023/09/05 00:16:54;;;;;;;8.27;3.78;;;16.80;99.90;;;;;;6133672;23;20623;-87
2023/09/05 00:19:20;;;;;;;9.10;5.07;;;16.70;99.90;;;;;;6158985;23;20459;-87
2023/09/05 00:21:45;;;;;;;8.70;5.18;;;16.70;99.90;;;;;;6158209;23;20012;-87
2023/09/05 00:24:27;;;;;;;10.90;7.25;;;16.70;99.90;;;;;;6134641;23;20446;-87
2023/09/05 00:26:55;;;;;;;10.50;6.25;;;16.80;99.90;;;;;;6134450;23;20459;-87
2023/09/05 00:29:21;;;;;;;10.63;7.95;;;16.70;99.90;;;;;;6158790;23;20454;-87
2023/09/05 00:31:47;;;;;;;14.02;9.50;;;16.70;99.90;;;;;;6158869;23;20042;-87
2023/09/05 00:34:16;;;;;;;11.15;6.25;;;16.70;99.90;;;;;;6134506;23;20013;-87
2023/09/05 00:36:42;;;;;;;11.07;6.20;;;16.70;99.90;;;;;;6159125;23;20024;-87
2023/09/05 00:39:09;;;;;;;9.40;5.35;;;16.70;99.90;;;;;;6133310;23;20013;-87
2023/09/05 00:41:38;;;;;;;9.13;5.10;;;16.70;99.90;;;;;;6158985;23;20016;-86
2023/09/05 00:44:04;;;;;;;7.68;4.88;;;16.70;99.90;;;;;;6158814;23;20021;-86
2023/09/05 00:46:32;;;;;;;9.20;5.03;;;16.60;99.90;;;;;;6133434;23;20009;-86
2023/09/05 00:49:02;;;;;;;9.88;4.53;;;16.60;99.90;;;;;;6158613;23;20483;-87
2023/09/05 00:51:31;;;;;;;9.23;5.75;;;16.50;99.90;;;;;;6158600;23;20055;-87
2023/09/05 00:54:01;;;;;;;8.18;3.75;;;16.50;99.90;;;;;;6158943;23;20009;-87
2023/09/05 00:56:26;;;;;;;9.48;5.13;;;16.40;99.90;;;;;;6133767;23;20063;-84
2023/09/05 00:58:52;;;;;;;8.75;5.57;;;16.40;99.90;;;;;;6133358;23;20067;-87
2023/09/05 01:01:18;;;;;;;9.93;5.95;;;16.50;99.90;;;;;;6134227;23;20009;-86
2023/09/05 01:03:43;;;;;;;8.40;5.30;;;16.50;99.90;;;;;;6158843;23;20013;-87
2023/09/05 01:06:22;;;;;;;9.63;5.55;;;16.50;99.90;;;;;;6158180;23;20021;-86
2023/09/05 01:09:01;;;;;;;8.77;5.40;;;16.50;99.90;;;;;;6158750;23;20017;-86
2023/09/05 01:11:27;;;;;;;10.77;6.13;;;16.60;99.90;;;;;;6157507;23;20493;-86
2023/09/05 01:13:53;;;;;;;7.85;4.00;;;16.50;99.90;;;;;;6133919;23;20024;-86
2023/09/05 01:16:18;;;;;;;10.85;4.15;;;16.40;99.90;;;;;;6159106;23;20013;-86
2023/09/05 01:18:45;;;;;;;8.93;5.47;;;16.30;99.90;;;;;;6159325;23;20037;-86
2023/09/05 01:21:26;;;;;;;8.20;5.30;;;16.30;99.90;;;;;;6158601;23;20011;-86
2023/09/05 01:24:12;;;;;;;8.93;3.63;;;16.40;99.90;;;;;;6159153;23;20017;-86
2023/09/05 01:26:40;;;;;;;9.48;5.88;;;16.20;99.90;;;;;;6157686;23;20009;-86
2023/09/05 01:29:07;;;;;;;11.73;5.68;;;16.20;99.90;;;;;;6158427;23;20108;-86
2023/09/05 01:31:33;;;;;;;8.98;3.85;;;16.20;99.90;;;;;;6158360;23;20060;-87
2023/09/05 01:33:59;;;;;;;9.20;6.05;;;16.20;99.90;;;;;;6158276;23;20013;-87
2023/09/05 01:36:24;;;;;;;8.95;5.60;;;16.20;99.90;;;;;;6158023;23;20096;-87
2023/09/05 01:38:50;;;;;;;8.75;6.07;;;16.30;99.90;;;;;;6158106;23;20491;-87
2023/09/05 01:41:15;;;;;;;9.20;5.28;;;16.20;99.90;;;;;;6158470;23;20347;-86
2023/09/05 01:43:41;;;;;;;9.07;5.35;;;16.30;99.90;;;;;;6133930;23;20064;-86
2023/09/05 01:46:07;;;;;;;8.15;3.50;;;16.30;99.90;;;;;;6133745;23;20009;-86
2023/09/05 01:48:32;;;;;;;8.60;4.55;;;16.20;99.90;;;;;;6133575;23;20017;-86
2023/09/05 01:50:58;;;;;;;8.30;4.15;;;16.10;99.90;;;;;;6158406;23;20017;-86
2023/09/05 01:53:24;;;;;;;8.80;5.50;;;16.00;99.90;;;;;;6158290;23;20092;-86
2023/09/05 01:55:50;;;;;;;10.32;5.88;;;16.00;99.90;;;;;;6158341;23;20351;-86
2023/09/05 01:58:15;;;;;;;11.75;6.28;;;16.00;99.90;;;;;;6157991;23;20458;-86
2023/09/05 02:00:41;;;;;;;9.40;5.63;;;16.00;99.90;;;;;;6158229;23;20005;-86
2023/09/05 02:03:06;;;;;;;9.48;6.50;;;16.00;99.90;;;;;;6158298;23;20013;-86
2023/09/05 02:05:32;;;;;;;10.55;5.50;;;16.00;99.90;;;;;;6158310;23;20446;-86
2023/09/05 02:07:57;;;;;;;8.55;5.97;;;15.90;99.90;;;;;;6158277;23;20020;-86
2023/09/05 02:10:23;;;;;;;9.10;6.18;;;16.00;99.90;;;;;;6157918;23;20009;-86
2023/09/05 02:12:50;;;;;;;8.60;4.28;;;16.00;99.90;;;;;;6157934;23;20017;-86
2023/09/05 02:15:15;;;;;;;6.80;3.35;;;15.80;99.90;;;;;;6158231;23;20023;-86
2023/09/05 02:17:41;;;;;;;7.80;3.50;;;15.80;99.90;;;;;;6158125;23;20013;-86
2023/09/05 02:20:07;;;;;;;10.15;6.40;;;15.70;99.90;;;;;;6133239;23;20094;-86
2023/09/05 02:22:33;;;;;;;8.77;5.43;;;15.80;99.90;;;;;;6133669;23;20374;-86
2023/09/05 02:24:59;;;;;;;8.88;3.50;;;15.80;99.90;;;;;;6158129;23;20407;-86
2023/09/05 02:27:26;;;;;;;7.65;3.55;;;15.70;99.90;;;;;;6158099;23;20012;-86
2023/09/05 02:29:59;;;;;;;9.27;5.70;;;15.60;99.90;;;;;;6157509;23;20052;-86
2023/09/05 02:32:24;;;;;;;8.15;4.00;;;15.60;99.90;;;;;;6157868;23;20013;-86
2023/09/05 02:34:52;;;;;;;8.30;3.78;;;15.60;99.90;;;;;;6133415;23;20550;-87
2023/09/05 02:37:18;;;;;;;9.32;5.20;;;15.50;99.90;;;;;;6157786;23;20028;-86
2023/09/05 02:39:44;;;;;;;9.80;5.20;;;15.50;99.90;;;;;;6157609;23;20009;-86
2023/09/05 02:42:09;;;;;;;7.70;3.80;;;15.60;99.90;;;;;;6133234;23;20346;-86
2023/09/05 02:44:35;;;;;;;9.77;5.75;;;15.50;99.90;;;;;;6158128;23;20081;-87
2023/09/05 02:47:01;;;;;;;9.40;6.30;;;15.40;99.90;;;;;;6135354;23;20015;-87
2023/09/05 02:49:26;;;;;;;10.38;6.88;;;15.50;99.90;;;;;;6135013;23;20009;-87
2023/09/05 02:51:52;;;;;;;10.32;7.45;;;15.50;99.90;;;;;;6135029;23;20103;-86
2023/09/05 02:54:17;;;;;;;10.57;7.72;;;15.50;99.90;;;;;;6160114;23;20013;-87
2023/09/05 02:56:43;;;;;;;10.25;7.38;;;15.50;99.90;;;;;;6159963;23;20048;-87
2023/09/05 02:59:09;;;;;;;10.90;5.38;;;15.50;99.90;;;;;;6135061;23;20020;-87
2023/09/05 03:01:34;;;;;;;11.00;8.10;;;15.40;99.90;;;;;;6159677;23;20443;-87
2023/09/05 03:04:00;;;;;;;9.57;5.10;;;15.40;99.90;;;;;;6159962;23;20530;-87
2023/09/05 03:06:26;;;;;;;11.23;8.30;;;15.40;99.90;;;;;;6134914;23;20009;-87
2023/09/05 03:08:51;;;;;;;12.07;5.22;;;15.40;99.90;;;;;;6159595;23;20144;-87
2023/09/05 03:11:17;;;;;;;11.23;7.78;;;15.40;99.90;;;;;;6159760;23;20374;-87
2023/09/05 03:13:44;;;;;;;11.30;7.22;;;15.40;99.90;;;;;;6159891;23;20013;-87
2023/09/05 03:16:12;;;;;;;10.07;4.60;;;15.40;99.90;;;;;;6159931;23;20013;-86
2023/09/05 03:18:38;;;;;;;10.15;4.78;;;15.40;99.90;;;;;;6134713;23;20044;-87
2023/09/05 03:21:04;;;;;;;10.80;7.65;;;15.30;99.90;;;;;;6159567;23;20017;-86
2023/09/05 03:23:30;;;;;;;9.70;4.57;;;15.30;99.90;;;;;;6159827;23;20016;-87
2023/09/05 03:25:56;;;;;;;10.10;7.03;;;15.30;99.90;;;;;;6135020;23;20021;-87
2023/09/05 03:28:23;;;;;;;8.75;4.50;;;15.30;99.90;;;;;;6159547;23;20328;-87
2023/09/05 03:30:48;;;;;;;11.27;8.05;;;15.30;99.90;;;;;;6159555;23;20016;-87
2023/09/05 03:33:14;;;;;;;11.35;7.32;;;15.40;99.90;;;;;;6159580;23;20024;-87
2023/09/05 03:35:42;;;;;;;10.57;7.60;;;15.40;99.90;;;;;;6134832;23;20096;-87
2023/09/05 03:38:08;;;;;;;10.32;4.07;;;15.50;99.90;;;;;;6158893;23;20016;-86
2023/09/05 03:40:34;;;;;;;11.70;7.80;;;15.40;99.90;;;;;;6159452;23;20041;-87
2023/09/05 03:43:00;;;;;;;8.60;4.43;;;15.40;99.90;;;;;;6135155;23;20012;-87
2023/09/05 03:45:30;;;;;;;13.70;8.20;;;15.40;99.90;;;;;;6135236;23;20005;-87
2023/09/05 03:47:55;;;;;;;9.88;4.63;;;15.40;99.90;;;;;;6159514;23;20054;-87
2023/09/05 03:50:21;;;;;;;8.55;4.57;;;15.40;99.90;;;;;;6159310;23;20036;-87
2023/09/05 03:52:47;;;;;;;12.10;7.97;;;15.40;99.90;;;;;;6159439;23;20454;-87
2023/09/05 03:55:13;;;;;;;11.80;8.05;;;15.40;99.90;;;;;;6134941;23;20343;-87
2023/09/05 03:57:39;;;;;;;11.68;7.75;;;15.40;99.90;;;;;;6159245;23;20454;-87
2023/09/05 04:00:07;;;;;;;11.48;4.50;;;15.50;99.90;;;;;;6158994;23;20017;-87
2023/09/05 04:02:32;;;;;;;13.05;8.40;;;15.40;99.90;;;;;;6159338;23;20013;-86
2023/09/05 04:04:58;;;;;;;10.32;4.97;;;15.40;99.90;;;;;;6159085;23;20017;-86
2023/09/05 04:07:24;;;;;;;9.27;4.72;;;15.40;99.90;;;;;;6159083;23;20095;-86
2023/09/05 04:09:49;;;;;;;12.45;8.00;;;15.30;99.90;;;;;;6158996;23;20398;-86
2023/09/05 04:12:15;;;;;;;13.45;8.48;;;15.40;99.90;;;;;;6134367;23;20017;-86
2023/09/05 04:14:41;;;;;;;12.18;8.77;;;15.50;99.90;;;;;;6159219;23;20557;-87
2023/09/05 04:17:07;;;;;;;11.25;8.63;;;15.50;99.90;;;;;;6159142;23;20049;-87
2023/09/05 04:19:32;;;;;;;11.45;7.97;;;15.50;99.90;;;;;;6158648;23;20592;-87
2023/09/05 04:21:58;;;;;;;12.13;9.10;;;15.50;99.90;;;;;;6134606;23;20013;-87
2023/09/05 04:24:24;;;;;;;12.18;8.65;;;15.50;99.90;;;;;;6159147;23;20023;-87
2023/09/05 04:26:50;;;;;;;9.38;4.93;;;15.50;99.90;;;;;;6159135;23;20036;-87
2023/09/05 04:29:16;;;;;;;10.15;4.53;;;15.40;99.90;;;;;;6134538;23;20044;-87
2023/09/05 04:31:42;;;;;;;11.10;5.25;;;15.30;99.90;;;;;;6158982;23;20482;-87
2023/09/05 04:34:08;;;;;;;12.43;8.77;;;15.30;99.90;;;;;;6159192;23;20017;-87
2023/09/05 04:36:36;;;;;;;10.98;8.25;;;15.30;99.90;;;;;;6158757;23;20091;-87
2023/09/05 04:39:03;;;;;;;9.98;4.93;;;15.40;99.90;;;;;;6156675;23;20021;-87
2023/09/05 04:41:28;;;;;;;10.88;6.07;;;15.30;99.90;;;;;;6155407;23;20013;-87
2023/09/05 04:43:54;;;;;;;11.90;10.25;;;15.30;99.90;;;;;;6155470;23;20052;-87
2023/09/05 04:46:19;;;;;;;10.70;5.55;;;15.30;99.90;;;;;;6130883;23;20391;-87
2023/09/05 04:48:45;;;;;;;10.98;8.80;;;15.30;99.90;;;;;;6155133;23;20017;-87
2023/09/05 04:51:11;;;;;;;11.13;5.72;;;15.30;99.90;;;;;;6155496;23;20021;-87
2023/09/05 04:53:36;;;;;;;11.30;6.45;;;15.30;99.90;;;;;;6131203;23;20016;-88
2023/09/05 04:56:03;;;;;;;11.27;9.00;;;15.20;99.90;;;;;;6132995;23;20013;-87
2023/09/05 04:58:29;;;;;;;12.52;8.82;;;15.30;99.90;;;;;;6158430;23;20088;-86
2023/09/05 05:01:02;;;;;;;10.00;5.00;;;15.30;99.90;;;;;;6158705;23;20013;-86
2023/09/05 05:03:32;;;;;;;11.25;8.88;;;15.30;99.90;;;;;;6134705;23;20016;-87
2023/09/05 05:05:58;;;;;;;12.05;8.60;;;15.30;99.90;;;;;;6158838;23;20757;-86
2023/09/05 05:08:24;;;;;;;12.65;9.20;;;15.30;99.90;;;;;;6158315;23;20020;-86
2023/09/05 05:10:50;;;;;;;12.18;9.38;;;15.30;99.90;;;;;;6158482;23;20017;-86
2023/09/05 05:13:16;;;;;;;10.65;8.63;;;15.40;99.90;;;;;;6158547;23;20378;-87
2023/09/05 05:15:45;;;;;;;12.15;9.10;;;15.40;99.90;;;;;;6158786;23;20020;-87
2023/09/05 05:18:11;;;;;;;11.35;9.57;;;15.40;99.90;;;;;;6158251;23;20041;-87
2023/09/05 05:20:37;;;;;;;11.50;10.15;;;15.40;99.90;;;;;;6158475;23;20071;-87
2023/09/05 05:23:04;;;;;;;9.32;4.75;;;15.40;99.90;;;;;;6158721;23;20016;-86
2023/09/05 05:25:30;;;;;;;12.23;9.68;;;15.30;99.90;;;;;;6158534;23;20095;-86
2023/09/05 05:27:55;;;;;;;11.60;9.88;;;15.30;99.90;;;;;;6158574;23;20521;-87
2023/09/05 05:30:21;;;;;;;10.55;5.93;;;15.40;99.90;;;;;;6158200;23;20055;-86
2023/09/05 05:32:47;;;;;;;10.93;5.88;;;15.40;99.90;;;;;;6158630;23;20084;-87
2023/09/05 05:35:13;;;;;;;11.45;5.78;;;15.30;99.90;;;;;;6158512;23;20013;-87
2023/09/05 05:37:39;;;;;;;12.57;9.43;;;15.30;99.90;;;;;;6133909;23;20048;-86
2023/09/05 05:40:05;;;;;;;10.98;6.03;;;15.40;99.90;;;;;;6158287;23;20092;-87
2023/09/05 05:42:31;;;;;;;14.43;9.75;;;15.40;99.90;;;;;;6133788;23;20009;-87
2023/09/05 05:44:56;;;;;;;11.73;9.65;;;15.40;99.90;;;;;;6158625;23;20015;-86
2023/09/05 05:47:22;;;;;;;10.80;6.63;;;15.50;99.90;;;;;;6134055;23;20016;-86
2023/09/05 05:49:48;;;;;;;11.77;9.52;;;15.50;99.90;;;;;;6133605;23;20395;-86
2023/09/05 05:52:14;;;;;;;11.43;9.50;;;15.50;99.90;;;;;;6132598;23;20143;-86
2023/09/05 05:54:39;;;;;;;9.75;4.93;;;15.60;99.90;;;;;;6154875;23;20034;-87
2023/09/05 05:57:05;;;;;;;11.65;10.20;;;15.60;99.90;;;;;;6154706;23;20350;-86
2023/09/05 05:59:30;;;;;;;11.93;5.75;;;15.70;99.90;;;;;;6154626;23;20483;-87
2023/09/05 06:01:56;;;;;;;12.38;5.80;;;15.70;99.90;;;;;;6156249;23;20048;-86
2023/09/05 06:04:23;;;;;;;10.23;6.03;;;15.60;99.90;;;;;;6158244;23;20071;-87
2023/09/05 06:06:49;;;;;;;11.10;6.35;;;15.60;99.90;;;;;;6133748;23;20013;-86
2023/09/05 06:09:18;;;;;;;10.90;5.30;;;15.60;99.90;;;;;;6157872;23;20017;-87
2023/09/05 06:11:45;;;;;;;12.40;9.65;;;15.70;99.90;;;;;;6157688;23;20013;-87
2023/09/05 06:14:10;;;;;;;11.10;8.98;;;15.70;99.90;;;;;;6133441;23;20058;-86
2023/09/05 06:16:37;;;;;;;12.02;8.93;;;15.80;99.90;;;;;;6157137;23;20048;-87
2023/09/05 06:19:02;;;;;;;13.80;9.90;;;15.90;99.90;;;;;;6132686;23;20020;-87
2023/09/05 06:21:28;;;;;;;12.93;9.45;;;16.00;99.90;;;;;;6158107;23;20005;-87
2023/09/05 06:23:53;;;;;;;13.68;10.30;;;16.10;99.90;;;;;;6157931;23;20037;-86
2023/09/05 06:26:19;;;;;;;11.77;5.93;;;16.10;99.90;;;;;;6133356;23;20443;-84
2023/09/05 06:28:44;;;;;;;11.80;6.50;;;16.10;99.90;;;;;;6133445;23;20017;-86
2023/09/05 06:31:10;;;;;;;13.13;10.35;;;16.10;99.90;;;;;;6158102;23;20013;-86
2023/09/05 06:33:36;;;;;;;12.60;6.63;;;16.20;99.90;;;;;;6158191;23;20020;-86
2023/09/05 06:36:06;;;;;;;12.77;9.73;;;16.30;99.90;;;;;;6158320;23;20017;-86
2023/09/05 06:38:31;;;;;;;12.18;9.77;;;16.40;99.90;;;;;;6157949;23;20017;-86
2023/09/05 06:41:04;;;;;;;11.15;5.55;;;16.50;99.90;;;;;;6157951;23;20017;-86
2023/09/05 06:43:29;;;;;;;11.57;8.63;;;16.50;99.90;;;;;;6158148;23;20036;-86
2023/09/05 06:46:02;;;;;;;10.70;6.07;;;16.60;99.90;;;;;;6133487;23;20017;-87
2023/09/05 06:48:29;;;;;;;11.23;8.68;;;16.70;99.90;;;;;;6133347;23;20096;-87
2023/09/05 06:50:56;;;;;;;10.57;5.88;;;16.70;99.90;;;;;;6158032;23;20028;-87
2023/09/05 06:53:22;;;;;;;11.32;7.60;;;16.80;99.90;;;;;;6157892;23;20040;-87
2023/09/05 06:55:48;;;;;;;11.20;8.30;;;16.90;99.90;;;;;;6158273;23;20016;-87
2023/09/05 06:58:14;;;;;;;12.20;4.88;;;17.00;99.90;;;;;;6154766;23;20049;-87
2023/09/05 07:00:39;;;;;;;9.45;7.10;;;17.10;99.90;;;;;;6154605;23;20020;-88
2023/09/05 07:03:05;;;;;;;9.23;4.13;;;17.20;99.90;;;;;;6154859;23;20028;-87
2023/09/05 07:05:31;;;;;;;11.25;6.72;;;17.20;99.90;;;;;;6154660;23;20013;-88
2023/09/05 07:07:56;;;;;;;9.07;6.30;;;17.30;99.90;;;;;;6156241;23;20347;-92
2023/09/05 07:10:22;;;;;;;8.50;4.47;;;17.50;99.90;;;;;;6133125;23;20013;-88
2023/09/05 07:12:47;;;;;;;12.25;6.45;;;17.50;99.90;;;;;;6157764;23;20029;-87
2023/09/05 07:15:13;;;;;;;9.15;4.40;;;17.60;99.90;;;;;;6133320;23;20015;-87
2023/09/05 07:17:38;;;;;;;11.10;6.03;;;17.70;99.90;;;;;;6157862;23;20009;-87
2023/09/05 07:20:05;;;;;;;9.95;6.07;;;17.80;99.90;;;;;;6157500;23;20462;-88
2023/09/05 07:22:30;;;;;;;9.60;6.20;;;17.90;99.90;;;;;;6157821;23;20013;-87
2023/09/05 07:24:56;;;;;;;9.48;5.82;;;18.00;99.90;;;;;;6157771;23;20006;-87
2023/09/05 07:27:21;;;;;;;8.55;5.97;;;18.10;99.90;;;;;;6157714;23;20482;-88
2023/09/05 07:29:47;;;;;;;10.25;6.00;;;18.20;99.90;;;;;;6157661;23;20020;-88
2023/09/05 07:32:13;;;;;;;9.80;6.03;;;18.30;99.90;;;;;;6134568;23;20017;-88
2023/09/05 07:34:38;;;;;;;8.93;5.75;;;18.40;99.90;;;;;;6135138;23;20013;-88
2023/09/05 07:37:04;;;;;;;8.80;5.03;;;18.50;99.90;;;;;;6135288;23;20035;-87
2023/09/05 07:39:29;;;;;;;8.40;5.72;;;18.50;99.90;;;;;;6134668;23;20024;-88
2023/09/05 07:41:55;;;;;;;10.07;5.63;;;18.60;99.90;;;;;;6135054;23;20013;-87
2023/09/05 07:44:20;;;;;;;9.88;5.70;;;18.70;99.90;;;;;;6134980;23;20035;-88
2023/09/05 07:46:46;;;;;;;9.45;5.53;;;18.80;99.90;;;;;;6159604;23;20044;-87
2023/09/05 07:49:13;;;;;;;10.00;5.30;;;18.90;99.90;;;;;;6159058;23;20013;-88
2023/09/05 07:51:39;;;;;;;8.00;5.28;;;18.90;99.90;;;;;;6159242;23;20481;-87
2023/09/05 07:54:06;;;;;;;9.60;4.80;;;19.00;99.90;;;;;;6134900;23;20021;-88
2023/09/05 07:56:33;;;;;;;10.75;5.15;;;19.10;99.90;;;;;;6159630;23;20398;-88
2023/09/05 07:58:59;;;;;;;9.48;4.93;;;19.20;99.90;;;;;;6134514;23;20653;-88
2023/09/05 08:01:25;;;;;;;9.23;4.85;;;19.30;99.90;;;;;;6158886;23;20187;-88
2023/09/05 08:03:51;;;;;;;9.10;5.22;;;19.40;99.90;;;;;;6159476;23;20054;-87
2023/09/05 08:06:17;;;;;;;7.93;4.57;;;19.50;99.90;;;;;;6134858;23;20020;-88
2023/09/05 08:08:43;;;;;;;8.52;4.43;;;19.60;99.90;;;;;;6134727;23;20017;-88
2023/09/05 08:11:08;;;;;;;7.97;4.07;;;19.70;99.90;;;;;;6134684;23;20047;-88
2023/09/05 08:13:34;;;;;;;9.40;4.40;;;19.80;99.90;;;;;;6134746;23;20017;-88
2023/09/05 08:16:01;;;;;;;8.30;4.45;;;19.90;99.90;;;;;;6159348;23;20015;-87
2023/09/05 08:18:28;;;;;;;8.10;4.20;;;20.00;99.90;;;;;;6134391;23;20096;-88
2023/09/05 08:20:56;;;;;;;7.88;3.80;;;20.10;99.90;;;;;;6134600;23;20016;-88
2023/09/05 08:23:22;;;;;;;7.90;3.47;;;20.20;99.90;;;;;;6134741;23;20012;-88
2023/09/05 08:25:51;;;;;;;8.30;3.92;;;20.30;99.90;;;;;;6159412;23;20013;-88
2023/09/05 08:28:18;;;;;;;9.90;4.60;;;20.40;99.90;;;;;;6158883;23;20101;-88
2023/09/05 08:30:44;;;;;;;7.90;3.33;;;20.50;99.90;;;;;;6159106;23;20091;-88
2023/09/05 08:33:10;;;;;;;7.72;3.50;;;20.60;99.90;;;;;;6159310;23;20493;-87
2023/09/05 08:35:37;;;;;;;8.10;3.08;;;20.70;99.90;;;;;;6134447;23;20099;-88
2023/09/05 08:38:05;;;;;;;7.35;3.50;;;20.80;99.90;;;;;;6158937;23;20013;-87
2023/09/05 08:40:34;;;;;;;7.40;3.20;;;20.90;99.90;;;;;;6134423;23;20013;-88
2023/09/05 08:43:01;;;;;;;7.57;3.20;;;21.00;99.90;;;;;;6158719;23;20009;-88
2023/09/05 08:45:30;;;;;;;7.68;3.05;;;21.10;99.90;;;;;;6134428;23;20016;-88
2023/09/05 08:47:55;;;;;;;6.90;3.08;;;21.20;99.90;;;;;;6158791;23;20556;-88
2023/09/05 08:50:22;;;;;;;6.43;2.70;;;21.40;99.90;;;;;;6159017;23;20009;-88
2023/09/05 08:52:52;;;;;;;8.13;2.80;;;21.50;99.90;;;;;;6134464;23;20012;-88
2023/09/05 08:55:19;;;;;;;6.65;2.53;;;21.60;99.90;;;;;;6159046;23;20453;-89
2023/09/05 08:57:47;;;;;;;5.97;2.50;;;21.70;99.90;;;;;;6134444;23;20508;-88
2023/09/05 09:00:17;;;;;;;7.50;2.90;;;21.80;99.90;;;;;;6134186;23;20017;-88
2023/09/05 09:02:43;;;;;;;8.55;3.00;;;21.90;99.90;;;;;;6134216;23;20518;-88
2023/09/05 09:05:09;;;;;;;9.75;4.30;;;22.00;99.90;;;;;;6134323;23;20041;-88
2023/09/05 09:07:35;;;;;;;9.02;3.70;;;22.10;99.90;;;;;;6134292;23;20015;-88
2023/09/05 09:10:20;;;;;;;8.00;4.00;;;22.20;99.90;;;;;;6133825;23;20023;-88
2023/09/05 09:12:54;;;;;;;6.32;2.90;;;22.30;99.90;;;;;;6134089;23;20055;-89
2023/09/05 09:15:22;;;;;;;6.72;2.92;;;22.40;99.90;;;;;;6158814;23;20016;-89
2023/09/05 09:17:51;;;;;;;6.40;2.40;;;22.50;99.90;;;;;;6158620;23;20016;-89
2023/09/05 09:20:18;;;;;;;6.57;2.67;;;22.60;99.90;;;;;;6133868;23;20037;-89
2023/09/05 09:22:45;;;;;;;6.53;2.75;;;22.70;99.90;;;;;;6134355;23;20032;-89
2023/09/05 09:25:20;;;;;;;7.07;3.03;;;22.80;99.90;;;;;;6134096;23;20064;-89
2023/09/05 09:27:50;;;;;;;6.60;2.50;;;22.90;99.90;;;;;;6158668;23;20013;-89
2023/09/05 09:30:20;;;;;;;7.85;2.50;;;23.00;99.90;;;;;;6158568;23;20332;-89
2023/09/05 09:32:51;;;;;;;6.82;2.60;;;23.10;99.90;;;;;;6158896;23;20021;-89
2023/09/05 09:35:17;;;;;;;5.68;2.20;;;23.20;99.90;;;;;;6134169;23;20043;-89
2023/09/05 09:37:48;;;;;;;5.40;2.35;;;23.30;99.90;;;;;;6158500;23;20048;-89
2023/09/05 09:40:16;;;;;;;5.68;2.08;;;23.40;99.90;;;;;;6158386;23;20017;-89
2023/09/05 09:42:43;;;;;;;7.53;2.75;;;23.50;99.90;;;;;;6133977;23;20009;-89
2023/09/05 09:45:09;;;;;;;5.40;2.28;;;23.60;99.90;;;;;;6133878;23;20451;-89
2023/09/05 09:47:52;;;;;;;6.47;2.40;;;23.70;99.90;;;;;;6158512;23;20458;-89
2023/09/05 09:50:22;;;;;;;7.55;2.72;;;23.80;99.90;;;;;;6158271;23;20009;-88
2023/09/05 09:52:52;;;;;;;5.55;2.10;;;23.90;99.90;;;;;;6158346;23;20019;-90
2023/09/05 09:55:21;;;;;;;9.43;2.42;;;23.90;99.90;;;;;;6133885;23;20401;-89
2023/09/05 09:57:56;;;;;;;9.15;2.10;;;24.00;99.90;;;;;;6133691;23;20513;-89
2023/09/05 10:00:23;;;;;;;8.82;2.03;;;24.10;99.90;;;;;;6157888;23;20017;-89
2023/09/05 10:02:49;;;;;;;5.53;2.05;;;24.20;99.90;;;;;;6134046;23;20009;-90
2023/09/05 10:05:17;;;;;;;5.40;1.95;;;24.30;99.90;;;;;;6158459;23;20501;-89
2023/09/05 10:07:43;;;;;;;8.95;2.38;;;24.40;99.90;;;;;;6133892;23;20092;-90
2023/09/05 10:10:15;;;;;;;5.35;2.20;;;24.50;99.40;;;;;;6157736;23;20016;-89
2023/09/05 10:12:46;;;;;;;6.27;1.77;;;24.50;99.90;;;;;;6133821;23;20024;-89
2023/09/05 10:15:13;;;;;;;6.40;2.08;;;24.70;98.70;;;;;;6158218;23;20244;-89
2023/09/05 10:17:41;;;;;;;6.20;2.20;;;24.80;99.90;;;;;;6133398;23;20018;-90
2023/09/05 10:20:08;;;;;;;5.35;1.90;;;24.80;97.70;;;;;;6157820;23;20013;-89
2023/09/05 10:22:39;;;;;;;6.28;1.88;;;24.90;97.30;;;;;;6133529;23;20027;-90
2023/09/05 10:25:07;;;;;;;6.07;2.15;;;25.00;98.40;;;;;;6158177;23;20012;-90
2023/09/05 10:27:33;;;;;;;6.63;2.35;;;25.10;98.50;;;;;;6158355;23;20005;-89
2023/09/05 10:29:59;;;;;;;6.32;2.67;;;25.20;97.50;;;;;;6133155;23;20013;-89
2023/09/05 10:32:25;;;;;;;7.32;2.70;;;25.30;98.70;;;;;;6158200;23;20013;-90
2023/09/05 10:34:51;;;;;;;7.13;2.40;;;25.40;99.40;;;;;;6133779;23;20013;-90
2023/09/05 10:37:21;;;;;;;5.43;1.95;;;25.50;97.90;;;;;;6158164;23;20017;-89
2023/09/05 10:39:49;;;;;;;5.40;2.10;;;25.60;92.80;;;;;;6133557;23;20023;-90
2023/09/05 10:42:16;;;;;;;5.72;2.00;;;25.70;92.80;;;;;;6158429;23;20009;-90
2023/09/05 10:44:46;;;;;;;4.80;1.95;;;25.70;92.50;;;;;;6157870;23;20096;-90
2023/09/05 10:47:35;;;;;;;5.22;2.00;;;25.80;92.60;;;;;;6157994;23;20088;-90
2023/09/05 10:50:06;;;;;;;4.50;1.90;;;25.90;92.10;;;;;;6133267;23;20095;-89
2023/09/05 10:52:32;;;;;;;6.03;1.98;;;26.00;91.60;;;;;;6157935;23;20525;-90
2023/09/05 10:55:18;;;;;;;5.15;2.00;;;26.10;90.50;;;;;;6158220;23;20071;-90
2023/09/05 10:57:47;;;;;;;5.07;2.03;;;26.20;93.30;;;;;;6157880;23;20068;-90
2023/09/05 11:00:16;;;;;;;6.95;2.00;;;26.30;91.80;;;;;;6133033;23;20009;-90
2023/09/05 11:02:46;;;;;;;5.70;1.63;;;26.40;92.40;;;;;;6133406;23;20049;-91
2023/09/05 11:05:18;;;;;;;5.80;2.17;;;26.50;91.10;;;;;;6133109;23;20141;-90
2023/09/05 11:07:44;;;;;;;;;;;26.60;90.40;;;;;;6160261;23;20013;-90
2023/09/05 11:10:14;;;;;;;4.97;1.77;;;26.70;92.00;;;;;;6159362;23;19920;-90
2023/09/05 11:12:40;;;;;;;5.78;1.80;;;26.70;87.80;;;;;;6159897;23;20009;-90
2023/09/05 11:15:08;;;;;;;5.03;1.80;;;26.90;84.80;;;;;;6158511;23;20357;-91
2023/09/05 11:17:35;;;;;;;3.40;1.50;;;27.00;81.10;;;;;;6135926;23;20024;-90
2023/09/05 11:20:08;;;;;;;4.18;1.50;;;27.00;79.10;;;;;;6135245;23;20013;-91
2023/09/05 11:22:34;;;;;;;;;;;27.10;78.90;;;;;;6160532;23;20411;-91
2023/09/05 11:25:03;;;;;;;6.00;1.70;;;27.10;79.60;;;;;;6160181;23;19912;-90
2023/09/05 11:27:30;;;;;;;6.70;1.60;;;27.20;79.60;;;;;;6135114;23;20013;-90
2023/09/05 11:30:09;;;;;;;6.00;1.60;;;27.30;78.90;;;;;;6134353;23;20017;-90
2023/09/05 11:32:38;;;;;;;4.57;1.75;;;27.50;76.80;;;;;;6135199;23;20016;-91
2023/09/05 11:35:05;;;;;;;4.75;1.77;;;27.60;75.20;;;;;;6135401;23;20013;-90
2023/09/05 11:37:31;;;;;;;3.40;1.50;;;27.70;77.70;;;;;;6134953;23;20059;-90
2023/09/05 11:40:15;;;;;;;5.45;1.55;;;27.70;77.40;;;;;;6159006;23;20021;-90
2023/09/05 11:42:40;;;;;;;4.03;1.70;;;27.90;76.00;;;;;;6135047;23;20332;-91
2023/09/05 11:45:18;;;;;;;4.53;1.70;;;27.90;74.90;;;;;;6159744;23;20039;-91
2023/09/05 11:47:45;;;;;;;4.35;1.70;;;28.00;74.60;;;;;;6159751;23;20028;-91
2023/09/05 11:50:12;;;;;;;5.15;1.70;;;28.10;74.70;;;;;;6159262;23;20013;-91
2023/09/05 11:52:40;;;;;;;7.53;1.80;;;28.30;75.50;;;;;;6159483;23;20013;-91
2023/09/05 11:55:06;;;;;;;3.72;1.52;;;28.40;74.20;;;;;;6158836;23;20071;-91
2023/09/05 11:57:33;;;;;;;4.53;1.52;;;28.50;74.70;;;;;;6159363;23;20126;-91
2023/09/05 11:59:59;;;;;;;4.20;1.70;;;28.60;73.90;;;;;;6159310;23;20024;-91
2023/09/05 12:02:26;;;;;;;5.35;1.60;;;28.70;74.20;;;;;;6157131;23;20009;-92
2023/09/05 12:04:52;;;;;;;5.53;1.60;;;28.80;70.90;;;;;;6156097;23;20087;-92
2023/09/05 12:07:23;;;;;;;4.80;1.80;;;28.80;69.60;;;;;;6155457;23;20021;-91
2023/09/05 12:09:48;;;;;;;5.30;1.80;;;28.90;71.30;;;;;;6130350;23;20395;-92
2023/09/05 12:12:18;;;;;;;5.03;1.92;;;29.00;70.80;;;;;;6155495;23;20756;-92
2023/09/05 12:14:48;;;;;;;4.95;1.50;;;29.10;70.70;;;;;;6155962;23;20017;-92
2023/09/05 12:17:19;;;;;;;5.03;1.70;;;29.20;72.10;;;;;;6131289;23;20020;-92
2023/09/05 12:19:47;;;;;;;6.28;2.42;;;29.30;69.80;;;;;;6155477;23;20023;-93
2023/09/05 12:22:29;;;;;;;5.05;1.55;;;29.50;68.50;;;;;;6155964;23;20376;-92
2023/09/05 12:25:06;;;;;;;4.95;1.50;;;29.60;67.70;;;;;;6156151;23;20092;-92
2023/09/05 12:27:32;;;;;;;4.72;1.50;;;29.70;69.60;;;;;;6131339;23;20053;-93
2023/09/05 12:29:57;;;;;;;4.80;1.73;;;29.90;70.10;;;;;;6155295;23;20481;-93
2023/09/05 12:32:26;;;;;;;7.30;1.63;;;30.10;67.10;;;;;;6159392;23;20143;-92
2023/09/05 12:35:13;;;;;;;4.57;1.48;;;30.20;66.50;;;;;;6145171;23;20017;-92
2023/09/05 12:37:39;;;;;;;4.05;1.58;;;30.40;67.20;;;;;;6076762;23;20050;-92
2023/09/05 12:40:06;;;;;;;6.25;1.80;;;30.40;65.50;;;;;;6093119;23;20050;-92
2023/09/05 12:42:32;;;;;;;5.85;1.80;;;30.50;65.70;;;;;;6096437;23;20492;-90
2023/09/05 12:44:57;;;;;;;5.20;1.80;;;30.60;65.70;;;;;;6112940;23;20076;-93